Time;durP1;ratioP1;P1;durP2;ratioP2;P2;SDS_P1;SDS_P2;PMS_P1;PMS_P2;Temp;Humidity;BMP_temperature;BMP_pressure;BME280_temperature;BME280_humidity;BME280_pressure;Samples;Min_cycle;Max_cycle;Signal;HPM_P1;HPM_P2
2021/07/18 00:00:41;;;;;;;3.80;2.67;;;;;;;;;;5094959;28;20283;-62
2021/07/18 00:03:09;;;;;;;5.15;2.55;;;;;;;;;;5095197;28;20216;-62
2021/07/18 00:05:37;;;;;;;8.63;3.08;;;;;;;;;;5094763;28;20588;-60
2021/07/18 00:08:06;;;;;;;5.40;2.80;;;;;;;;;;5094588;28;20200;-62
2021/07/18 00:10:34;;;;;;;7.15;3.17;;;;;;;;;;5094850;28;20214;-60
2021/07/18 00:13:02;;;;;;;6.38;3.92;;;;;;;;;;5094980;28;20718;-60
2021/07/18 00:15:32;;;;;;;7.03;2.85;;;;;;;;;;5094920;28;20257;-61
2021/07/18 00:18:00;;;;;;;6.10;2.72;;;;;;;;;;5094970;28;20196;-61
2021/07/18 00:20:28;;;;;;;5.95;3.05;;;;;;;;;;5094790;28;20196;-61
2021/07/18 00:22:57;;;;;;;5.85;2.90;;;;;;;;;;5094258;28;20691;-60
2021/07/18 00:25:25;;;;;;;10.05;3.60;;;;;;;;;;5094564;28;20200;-60
2021/07/18 00:27:53;;;;;;;5.70;2.80;;;;;;;;;;5076127;28;20291;-61
2021/07/18 00:30:22;;;;;;;5.78;2.85;;;;;;;;;;5074366;28;20215;-61
2021/07/18 00:32:52;;;;;;;3.67;2.65;;;;;;;;;;5074330;28;20196;-61
2021/07/18 00:35:20;;;;;;;5.88;2.90;;;;;;;;;;5074376;28;20203;-60
2021/07/18 00:37:48;;;;;;;8.70;3.90;;;;;;;;;;5074616;28;20201;-60
2021/07/18 00:40:16;;;;;;;4.75;3.63;;;;;;;;;;5074140;28;20207;-60
2021/07/18 00:42:45;;;;;;;6.13;3.15;;;;;;;;;;5074240;28;20783;-60
2021/07/18 00:45:13;;;;;;;6.35;3.22;;;;;;;;;;5074102;28;20299;-60
2021/07/18 00:47:42;;;;;;;7.82;3.10;;;;;;;;;;5073846;28;20296;-60
2021/07/18 00:50:13;;;;;;;5.47;3.22;;;;;;;;;;5074280;28;20205;-60
2021/07/18 00:52:41;;;;;;;5.65;2.97;;;;;;;;;;5074245;28;20184;-60
2021/07/18 00:55:10;;;;;;;5.57;3.58;;;;;;;;;;5074091;28;20236;-61
2021/07/18 00:57:39;;;;;;;6.97;3.40;;;;;;;;;;5074317;28;20222;-61
2021/07/18 01:00:08;;;;;;;6.97;3.30;;;;;;;;;;5073881;28;20287;-61
2021/07/18 01:02:37;;;;;;;6.47;3.03;;;;;;;;;;5073647;28;20223;-61
2021/07/18 01:05:05;;;;;;;7.38;3.53;;;;;;;;;;5073799;28;20201;-63
2021/07/18 01:07:35;;;;;;;6.88;3.03;;;;;;;;;;5073588;28;20264;-59
2021/07/18 01:10:04;;;;;;;5.80;2.92;;;;;;;;;;5073551;28;20201;-60
2021/07/18 01:12:32;;;;;;;5.13;3.15;;;;;;;;;;5074081;28;20200;-59
2021/07/18 01:15:00;;;;;;;9.32;3.60;;;;;;;;;;5073708;28;20635;-61
2021/07/18 01:17:29;;;;;;;8.80;4.13;;;;;;;;;;5073549;28;20200;-60
2021/07/18 01:19:57;;;;;;;5.97;3.25;;;;;;;;;;5073261;28;20539;-60
2021/07/18 01:22:27;;;;;;;7.93;3.97;;;;;;;;;;5072986;28;20212;-61
2021/07/18 01:24:56;;;;;;;5.60;3.33;;;;;;;;;;5073452;28;20211;-61
2021/07/18 01:27:24;;;;;;;5.88;3.17;;;;;;;;;;5073318;28;20197;-61
2021/07/18 01:29:52;;;;;;;6.22;3.17;;;;;;;;;;5072981;28;20711;-60
2021/07/18 01:32:20;;;;;;;5.18;3.20;;;;;;;;;;5072842;28;20200;-61
2021/07/18 01:34:49;;;;;;;8.50;3.50;;;;;;;;;;5073381;28;20221;-61
2021/07/18 01:37:18;;;;;;;6.07;3.25;;;;;;;;;;5072864;28;20211;-64
2021/07/18 01:39:48;;;;;;;6.30;3.50;;;;;;;;;;5072464;28;20295;-61
2021/07/18 01:42:16;;;;;;;5.75;3.10;;;;;;;;;;5073381;28;20209;-61
2021/07/18 01:44:44;;;;;;;5.88;3.17;;;;;;;;;;5072970;28;20674;-60
2021/07/18 01:47:12;;;;;;;8.15;3.22;;;;;;;;;;5072762;28;20205;-60
2021/07/18 01:49:42;;;;;;;3.95;3.17;;;;;;;;;;5073311;28;20287;-60
2021/07/18 01:52:11;;;;;;;3.90;2.97;;;;;;;;;;5088744;28;20224;-59
2021/07/18 01:54:39;;;;;;;4.55;2.85;;;;;;;;;;5093231;28;20196;-61
2021/07/18 01:57:13;;;;;;;5.95;3.30;;;;;;;;;;5092855;28;20651;-61
2021/07/18 01:59:42;;;;;;;6.38;2.97;;;;;;;;;;5092854;28;20233;-60
2021/07/18 02:02:10;;;;;;;6.47;4.25;;;;;;;;;;5092712;28;20607;-60
2021/07/18 02:04:38;;;;;;;5.00;2.85;;;;;;;;;;5093134;28;20245;-60
2021/07/18 02:07:07;;;;;;;6.72;3.45;;;;;;;;;;5092996;28;20282;-59
2021/07/18 02:09:37;;;;;;;3.75;2.85;;;;;;;;;;5092941;28;20291;-63
2021/07/18 02:12:06;;;;;;;4.05;2.78;;;;;;;;;;5093334;28;20299;-60
2021/07/18 02:14:39;;;;;;;4.07;2.72;;;;;;;;;;5092961;28;20199;-60
2021/07/18 02:17:07;;;;;;;5.55;3.47;;;;;;;;;;5092881;28;20202;-60
2021/07/18 02:19:36;;;;;;;3.03;2.45;;;;;;;;;;5092933;28;20592;-60
2021/07/18 02:22:05;;;;;;;5.22;3.00;;;;;;;;;;5092695;28;20310;-60
2021/07/18 02:24:33;;;;;;;4.43;2.70;;;;;;;;;;5092743;28;20277;-60
2021/07/18 02:27:01;;;;;;;4.47;2.55;;;;;;;;;;5081845;28;20200;-61
2021/07/18 02:29:29;;;;;;;4.60;2.63;;;;;;;;;;5072740;28;20203;-59
2021/07/18 02:31:59;;;;;;;5.05;2.83;;;;;;;;;;5072517;28;20208;-61
2021/07/18 02:34:27;;;;;;;5.55;3.10;;;;;;;;;;5072948;28;20196;-59
2021/07/18 02:36:56;;;;;;;3.88;2.63;;;;;;;;;;5072457;28;20204;-60
2021/07/18 02:39:24;;;;;;;8.57;2.88;;;;;;;;;;5072474;28;20309;-60
2021/07/18 02:41:52;;;;;;;6.35;2.75;;;;;;;;;;5072517;28;20207;-60
2021/07/18 02:44:20;;;;;;;5.88;3.30;;;;;;;;;;5072429;28;20216;-60
2021/07/18 02:46:48;;;;;;;3.33;2.78;;;;;;;;;;5072186;28;20211;-59
2021/07/18 02:49:18;;;;;;;4.95;3.05;;;;;;;;;;5072173;28;20673;-60
2021/07/18 02:51:46;;;;;;;4.72;2.50;;;;;;;;;;5087520;28;20318;-61
2021/07/18 02:54:14;;;;;;;6.28;3.13;;;;;;;;;;5096419;28;20196;-61
2021/07/18 02:56:42;;;;;;;5.25;3.20;;;;;;;;;;5096136;28;20200;-60
2021/07/18 02:59:10;;;;;;;4.63;2.80;;;;;;;;;;5096369;28;20206;-61
2021/07/18 03:01:38;;;;;;;8.50;2.63;;;;;;;;;;5096381;28;20218;-59
2021/07/18 03:04:07;;;;;;;4.47;2.70;;;;;;;;;;5096198;28;20592;-61
2021/07/18 03:06:36;;;;;;;3.33;2.67;;;;;;;;;;5096186;28;20204;-61
2021/07/18 03:09:04;;;;;;;5.03;2.80;;;;;;;;;;5096062;28;20200;-59
2021/07/18 03:11:33;;;;;;;3.80;2.60;;;;;;;;;;5096119;28;20206;-59
2021/07/18 03:14:01;;;;;;;4.70;2.88;;;;;;;;;;5096050;28;20219;-61
2021/07/18 03:16:29;;;;;;;3.55;2.88;;;;;;;;;;5096011;28;20200;-61
2021/07/18 03:18:59;;;;;;;4.13;2.50;;;;;;;;;;5096549;28;20208;-62
2021/07/18 03:21:27;;;;;;;3.45;2.70;;;;;;;;;;5095939;28;20203;-59
2021/07/18 03:23:57;;;;;;;3.90;2.80;;;;;;;;;;5095723;28;20216;-59
2021/07/18 03:26:25;;;;;;;3.33;2.58;;;;;;;;;;5095608;28;20200;-60
2021/07/18 03:28:53;;;;;;;3.80;2.60;;;;;;;;;;5095862;28;20200;-60
2021/07/18 03:31:21;;;;;;;4.68;2.65;;;;;;;;;;5095506;28;20580;-60
2021/07/18 03:33:49;;;;;;;5.00;2.63;;;;;;;;;;5095690;28;20192;-60
2021/07/18 03:36:18;;;;;;;6.57;2.67;;;;;;;;;;5095062;28;20675;-61
2021/07/18 03:38:46;;;;;;;4.25;2.78;;;;;;;;;;5095538;28;20213;-60
2021/07/18 03:41:19;;;;;;;3.92;2.72;;;;;;;;;;5095472;28;20195;-61
2021/07/18 03:43:47;;;;;;;5.05;3.00;;;;;;;;;;5095228;28;20553;-60
2021/07/18 03:46:15;;;;;;;3.20;2.47;;;;;;;;;;5095685;28;20249;-60
2021/07/18 03:48:44;;;;;;;6.00;2.78;;;;;;;;;;5095219;28;20204;-61
2021/07/18 03:51:12;;;;;;;7.07;2.97;;;;;;;;;;5094921;28;20236;-60
2021/07/18 03:53:40;;;;;;;3.08;2.60;;;;;;;;;;5095428;28;20279;-60
2021/07/18 03:56:09;;;;;;;4.50;2.67;;;;;;;;;;5095205;28;20820;-61
2021/07/18 03:58:39;;;;;;;2.85;2.50;;;;;;;;;;5095328;28;20204;-60
2021/07/18 04:01:10;;;;;;;5.82;2.70;;;;;;;;;;5095253;28;20204;-61
2021/07/18 04:03:39;;;;;;;6.30;2.55;;;;;;;;;;5094333;28;20978;-61
2021/07/18 04:06:07;;;;;;;3.35;2.50;;;;;;;;;;5094913;28;20211;-60
2021/07/18 04:08:35;;;;;;;5.50;2.65;;;;;;;;;;5094986;28;20200;-61
2021/07/18 04:11:03;;;;;;;3.22;2.58;;;;;;;;;;5094956;28;20204;-61
2021/07/18 04:13:31;;;;;;;4.88;2.85;;;;;;;;;;5094716;28;20643;-60
2021/07/18 04:16:01;;;;;;;6.60;2.63;;;;;;;;;;5094790;28;20203;-60
2021/07/18 04:18:29;;;;;;;5.68;3.10;;;;;;;;;;5094932;28;20204;-60
2021/07/18 04:20:57;;;;;;;6.85;3.22;;;;;;;;;;5095039;28;20204;-60
2021/07/18 04:23:28;;;;;;;3.03;2.70;;;;;;;;;;5094266;28;20238;-60
2021/07/18 04:25:56;;;;;;;7.45;3.00;;;;;;;;;;5092438;28;20196;-61
2021/07/18 04:28:24;;;;;;;5.00;2.70;;;;;;;;;;5074514;28;20626;-61
2021/07/18 04:30:52;;;;;;;5.10;2.65;;;;;;;;;;5074365;28;20205;-61
2021/07/18 04:33:22;;;;;;;4.20;2.70;;;;;;;;;;5074435;28;20234;-60
2021/07/18 04:35:50;;;;;;;3.53;3.22;;;;;;;;;;5074392;28;20192;-59
2021/07/18 04:38:18;;;;;;;6.20;2.90;;;;;;;;;;5074032;28;20211;-60
2021/07/18 04:40:46;;;;;;;5.63;3.38;;;;;;;;;;5075981;28;20200;-60
2021/07/18 04:43:15;;;;;;;4.22;3.05;;;;;;;;;;5079579;28;20209;-60
2021/07/18 04:45:43;;;;;;;6.15;3.20;;;;;;;;;;5077885;28;20284;-60
2021/07/18 04:48:11;;;;;;;4.53;3.05;;;;;;;;;;5075347;28;20682;-60
2021/07/18 04:50:41;;;;;;;4.95;3.15;;;;;;;;;;5077918;28;20224;-60
2021/07/18 04:53:09;;;;;;;5.03;3.20;;;;;;;;;;5094249;28;20278;-60
2021/07/18 04:55:37;;;;;;;3.72;3.30;;;;;;;;;;5094113;28;20188;-60
2021/07/18 04:58:05;;;;;;;5.63;3.53;;;;;;;;;;5094054;28;20659;-61
2021/07/18 05:00:33;;;;;;;5.25;3.40;;;;;;;;;;5094159;28;20282;-61
2021/07/18 05:03:01;;;;;;;5.07;3.42;;;;;;;;;;5094103;28;20290;-61
2021/07/18 05:05:30;;;;;;;3.80;2.88;;;;;;;;;;5093626;28;20273;-61
2021/07/18 05:08:00;;;;;;;4.28;2.80;;;;;;;;;;5093751;28;20260;-61
2021/07/18 05:10:28;;;;;;;5.32;2.90;;;;;;;;;;5093717;28;20200;-61
2021/07/18 05:12:58;;;;;;;5.75;3.00;;;;;;;;;;5093528;28;20196;-61
2021/07/18 05:15:27;;;;;;;4.25;2.95;;;;;;;;;;5094011;28;20195;-61
2021/07/18 05:17:56;;;;;;;4.20;2.78;;;;;;;;;;5093429;28;20248;-63
2021/07/18 05:20:25;;;;;;;4.70;2.92;;;;;;;;;;5093455;28;20243;-61
2021/07/18 05:22:53;;;;;;;8.95;3.35;;;;;;;;;;5093392;28;20206;-60
2021/07/18 05:25:23;;;;;;;6.20;3.22;;;;;;;;;;5093398;28;20242;-61
2021/07/18 05:27:51;;;;;;;5.10;3.03;;;;;;;;;;5093146;28;20716;-61
2021/07/18 05:30:19;;;;;;;3.95;2.88;;;;;;;;;;5093496;28;20301;-62
2021/07/18 05:32:47;;;;;;;6.63;4.13;;;;;;;;;;5092992;28;20196;-61
2021/07/18 05:35:15;;;;;;;5.78;4.00;;;;;;;;;;5093482;28;20204;-59
2021/07/18 05:37:44;;;;;;;7.00;3.80;;;;;;;;;;5092988;28;20286;-61
2021/07/18 05:40:12;;;;;;;6.53;4.38;;;;;;;;;;5093113;28;20568;-60
2021/07/18 05:42:42;;;;;;;9.82;4.60;;;;;;;;;;5093338;28;20210;-62
2021/07/18 05:45:11;;;;;;;7.57;4.65;;;;;;;;;;5093172;28;20216;-61
2021/07/18 05:47:39;;;;;;;6.85;4.53;;;;;;;;;;5092917;28;20660;-61
2021/07/18 05:50:08;;;;;;;5.13;4.50;;;;;;;;;;5093139;28;20253;-61
2021/07/18 05:52:37;;;;;;;9.43;5.30;;;;;;;;;;5092957;28;20266;-61
2021/07/18 05:55:07;;;;;;;6.22;4.07;;;;;;;;;;5093028;28;20196;-61
2021/07/18 05:57:35;;;;;;;5.43;4.22;;;;;;;;;;5093068;28;20227;-60
2021/07/18 06:00:05;;;;;;;4.85;4.10;;;;;;;;;;5093012;28;20287;-60
2021/07/18 06:02:33;;;;;;;7.38;3.95;;;;;;;;;;5092958;28;20196;-61
2021/07/18 06:05:02;;;;;;;4.97;3.92;;;;;;;;;;5092729;28;20719;-60
2021/07/18 06:07:30;;;;;;;6.40;4.13;;;;;;;;;;5092874;28;20200;-61
2021/07/18 06:09:58;;;;;;;7.38;4.43;;;;;;;;;;5092801;28;20206;-61
2021/07/18 06:12:26;;;;;;;6.60;4.28;;;;;;;;;;5092913;28;20204;-61
2021/07/18 06:14:55;;;;;;;8.50;4.95;;;;;;;;;;5092935;28;20278;-61
2021/07/18 06:17:24;;;;;;;8.15;5.15;;;;;;;;;;5092674;28;20203;-60
2021/07/18 06:19:52;;;;;;;5.70;4.20;;;;;;;;;;5092783;28;20621;-59
2021/07/18 06:22:20;;;;;;;5.78;4.07;;;;;;;;;;5092430;28;20196;-61
2021/07/18 06:24:49;;;;;;;5.63;4.18;;;;;;;;;;5092611;28;20316;-60
2021/07/18 06:27:17;;;;;;;6.20;4.78;;;;;;;;;;5083550;28;20200;-60
2021/07/18 06:29:45;;;;;;;6.30;4.65;;;;;;;;;;5076776;28;20218;-61
2021/07/18 06:32:13;;;;;;;7.50;4.88;;;;;;;;;;5076614;28;20295;-60
2021/07/18 06:34:43;;;;;;;7.50;4.47;;;;;;;;;;5076635;28;20254;-60
2021/07/18 06:37:11;;;;;;;6.22;4.78;;;;;;;;;;5076326;28;20291;-60
2021/07/18 06:39:39;;;;;;;5.43;4.63;;;;;;;;;;5076520;28;20201;-60
2021/07/18 06:42:07;;;;;;;6.28;5.13;;;;;;;;;;5076341;28;20196;-61
2021/07/18 06:44:35;;;;;;;6.28;5.15;;;;;;;;;;5076499;28;20197;-61
2021/07/18 06:47:03;;;;;;;6.63;4.55;;;;;;;;;;5076311;28;20220;-60
2021/07/18 06:49:32;;;;;;;5.05;4.55;;;;;;;;;;5076188;28;20279;-62
2021/07/18 06:52:01;;;;;;;10.48;5.75;;;;;;;;;;5090204;28;20715;-60
2021/07/18 06:54:30;;;;;;;6.28;4.95;;;;;;;;;;5096528;28;20275;-60
2021/07/18 06:56:58;;;;;;;6.00;5.25;;;;;;;;;;5096331;28;20291;-60
2021/07/18 06:59:27;;;;;;;6.07;5.00;;;;;;;;;;5096325;28;20226;-60
2021/07/18 07:01:55;;;;;;;7.53;5.43;;;;;;;;;;5096246;28;20196;-61
2021/07/18 07:04:23;;;;;;;7.53;5.13;;;;;;;;;;5096253;28;20204;-60
2021/07/18 07:06:51;;;;;;;7.20;4.85;;;;;;;;;;5095939;28;20220;-61
2021/07/18 07:09:21;;;;;;;6.53;5.13;;;;;;;;;;5096324;28;20280;-60
2021/07/18 07:11:49;;;;;;;7.40;5.30;;;;;;;;;;5095728;28;20209;-61
2021/07/18 07:14:18;;;;;;;5.93;5.30;;;;;;;;;;5096049;28;20204;-61
2021/07/18 07:16:46;;;;;;;7.90;5.53;;;;;;;;;;5096020;28;20192;-62
2021/07/18 07:19:14;;;;;;;6.65;5.35;;;;;;;;;;5095632;28;20210;-62
2021/07/18 07:21:43;;;;;;;6.13;4.70;;;;;;;;;;5095976;28;20200;-61
2021/07/18 07:24:11;;;;;;;6.95;5.00;;;;;;;;;;5095623;28;20204;-62
2021/07/18 07:26:41;;;;;;;6.15;4.88;;;;;;;;;;5095262;28;20231;-61
2021/07/18 07:29:09;;;;;;;6.82;4.95;;;;;;;;;;5095809;28;20204;-61
2021/07/18 07:31:37;;;;;;;6.78;4.78;;;;;;;;;;5095740;28;20200;-60
2021/07/18 07:34:05;;;;;;;5.07;4.03;;;;;;;;;;5095415;28;20633;-60
2021/07/18 07:36:34;;;;;;;7.75;4.55;;;;;;;;;;5094839;28;20196;-60
2021/07/18 07:39:02;;;;;;;6.05;4.30;;;;;;;;;;5095012;28;20196;-61
2021/07/18 07:41:35;;;;;;;7.85;4.40;;;;;;;;;;5095466;28;20192;-60
2021/07/18 07:44:05;;;;;;;5.45;4.20;;;;;;;;;;5095192;28;20291;-60
2021/07/18 07:46:33;;;;;;;6.35;4.20;;;;;;;;;;5095276;28;20212;-61
2021/07/18 07:49:01;;;;;;;5.70;4.43;;;;;;;;;;5095404;28;20235;-61
2021/07/18 07:51:29;;;;;;;6.03;4.45;;;;;;;;;;5094573;28;20257;-60
2021/07/18 07:53:57;;;;;;;8.20;4.60;;;;;;;;;;5094903;28;20225;-60
2021/07/18 07:56:26;;;;;;;5.15;4.50;;;;;;;;;;5095147;28;20291;-61
2021/07/18 07:58:54;;;;;;;5.40;4.43;;;;;;;;;;5094869;28;20674;-61
2021/07/18 08:01:25;;;;;;;7.40;4.40;;;;;;;;;;5094786;28;20212;-61
2021/07/18 08:03:53;;;;;;;6.30;4.10;;;;;;;;;;5095122;28;20184;-61
2021/07/18 08:06:22;;;;;;;5.05;3.78;;;;;;;;;;5094790;28;20277;-61
2021/07/18 08:08:50;;;;;;;4.95;4.00;;;;;;;;;;5094634;28;20678;-59
2021/07/18 08:11:18;;;;;;;5.68;3.90;;;;;;;;;;5094326;28;20214;-60
2021/07/18 08:13:46;;;;;;;6.57;4.82;;;;;;;;;;5094552;28;20210;-61
2021/07/18 08:16:14;;;;;;;5.30;4.30;;;;;;;;;;5094712;28;20196;-62
2021/07/18 08:18:44;;;;;;;6.97;4.35;;;;;;;;;;5095074;28;20200;-62
2021/07/18 08:21:12;;;;;;;6.28;4.00;;;;;;;;;;5094707;28;20211;-62
2021/07/18 08:23:43;;;;;;;7.32;4.07;;;;;;;;;;5094281;28;20664;-61
2021/07/18 08:26:12;;;;;;;4.38;3.97;;;;;;;;;;5094142;28;20226;-61
2021/07/18 08:28:41;;;;;;;5.50;4.20;;;;;;;;;;5094497;28;20747;-61
2021/07/18 08:31:09;;;;;;;6.22;4.10;;;;;;;;;;5094606;28;20196;-62
2021/07/18 08:33:37;;;;;;;4.75;3.90;;;;;;;;;;5094616;28;20567;-62
2021/07/18 08:36:07;;;;;;;5.35;4.00;;;;;;;;;;5094114;28;20238;-62
2021/07/18 08:38:35;;;;;;;5.72;4.30;;;;;;;;;;5094311;28;20206;-61
2021/07/18 08:41:04;;;;;;;5.10;4.13;;;;;;;;;;5094015;28;20214;-61
2021/07/18 08:43:45;;;;;;;6.07;3.90;;;;;;;;;;5094028;28;20269;-62
2021/07/18 08:46:14;;;;;;;4.95;3.70;;;;;;;;;;5093922;28;20226;-62
2021/07/18 08:48:42;;;;;;;4.55;3.60;;;;;;;;;;5093680;28;20231;-62
2021/07/18 08:51:13;;;;;;;3.60;3.30;;;;;;;;;;5093817;28;20262;-62
2021/07/18 08:53:42;;;;;;;5.25;3.50;;;;;;;;;;5094146;28;20184;-61
2021/07/18 08:56:10;;;;;;;3.58;3.28;;;;;;;;;;5094010;28;20204;-62
2021/07/18 08:58:40;;;;;;;3.92;3.13;;;;;;;;;;5093669;28;20572;-61
2021/07/18 09:01:08;;;;;;;4.93;3.13;;;;;;;;;;5094138;28;20254;-62
2021/07/18 09:03:36;;;;;;;5.03;3.10;;;;;;;;;;5093928;28;20200;-62
2021/07/18 09:06:08;;;;;;;3.97;3.13;;;;;;;;;;5093393;28;20660;-62
2021/07/18 09:08:46;;;;;;;4.63;3.17;;;;;;;;;;5093826;28;20562;-62
2021/07/18 09:11:18;;;;;;;5.32;3.22;;;;;;;;;;5093400;28;20529;-62
2021/07/18 09:13:56;;;;;;;3.20;2.53;;;;;;;;;;5093824;28;20202;-62
2021/07/18 09:16:29;;;;;;;3.83;2.78;;;;;;;;;;5093626;28;20288;-62
2021/07/18 09:19:12;;;;;;;4.38;2.90;;;;;;;;;;5093768;28;20257;-61
2021/07/18 09:21:40;;;;;;;4.53;3.13;;;;;;;;;;5093549;28;20183;-62
2021/07/18 09:24:19;;;;;;;3.60;2.72;;;;;;;;;;5093571;28;20282;-63
2021/07/18 09:27:03;;;;;;;3.65;2.65;;;;;;;;;;5093359;28;20208;-61
2021/07/18 09:29:31;;;;;;;5.15;3.00;;;;;;;;;;5092917;28;20219;-61
2021/07/18 09:32:03;;;;;;;3.70;2.70;;;;;;;;;;5092996;28;20206;-62
2021/07/18 09:34:36;;;;;;;4.60;2.88;;;;;;;;;;5093630;28;20590;-61
2021/07/18 09:37:08;;;;;;;3.75;2.85;;;;;;;;;;5093015;28;20671;-62
2021/07/18 09:39:38;;;;;;;3.90;2.83;;;;;;;;;;5092950;28;20204;-62
2021/07/18 09:42:07;;;;;;;2.85;2.60;;;;;;;;;;5093419;28;20191;-62
2021/07/18 09:44:42;;;;;;;4.88;2.50;;;;;;;;;;5098337;28;20203;-63
2021/07/18 09:47:10;;;;;;;3.22;2.55;;;;;;;;;;5099138;28;20243;-62
2021/07/18 09:49:39;;;;;;;3.45;2.78;;;;;;;;;;5098160;28;20199;-62
2021/07/18 09:52:18;;;;;;;4.13;3.35;;;;;;;;;;5092664;28;20580;-62
2021/07/18 09:54:47;;;;;;;5.13;3.03;;;;;;;;;;5092763;28;20620;-62
2021/07/18 09:57:43;;;;;;;3.97;2.70;;;;;;;;;;5092782;28;20235;-62
2021/07/18 10:00:12;;;;;;;4.68;3.08;;;;;;;;;;5044749;28;20212;-61
2021/07/18 10:02:41;;;;;;;5.07;3.00;;;;;;;;;;5092665;28;20651;-63
2021/07/18 10:05:16;;;;;;;5.75;2.88;;;;;;;;;;5092527;28;20222;-61
2021/07/18 10:07:44;;;;;;;3.25;2.95;;;;;;;;;;5092651;28;20569;-62
2021/07/18 10:10:14;;;;;;;3.13;2.70;;;;;;;;;;5092657;28;20204;-62
2021/07/18 10:12:43;;;;;;;3.42;2.50;;;;;;;;;;5073913;28;20292;-61
2021/07/18 10:18:57;;;;;;;2.78;2.58;;;;;;;;;;5083688;28;20219;-62
2021/07/18 10:21:26;;;;;;;6.13;3.42;;;;;;;;;;5088580;28;20192;-63
2021/07/18 10:23:55;;;;;;;3.08;2.45;;;;;;;;;;5091507;28;20207;-62
2021/07/18 10:29:28;;;;;;;3.63;2.58;;;;;;;;;;5078230;28;20187;-64
2021/07/18 10:32:02;;;;;;;5.00;2.88;;;;;;;;;;5076122;28;20189;-61
2021/07/18 10:34:35;;;;;;;3.95;2.78;;;;;;;;;;5091256;28;20192;-63
2021/07/18 10:37:04;;;;;;;3.10;2.72;;;;;;;;;;5087644;28;20199;-62
2021/07/18 10:39:35;;;;;;;3.05;2.60;;;;;;;;;;5071894;28;20231;-60
2021/07/18 10:42:06;;;;;;;3.65;2.63;;;;;;;;;;5072226;28;20280;-62
2021/07/18 10:44:40;;;;;;;3.38;2.45;;;;;;;;;;5072310;28;20243;-62
2021/07/18 10:47:11;;;;;;;3.55;2.35;;;;;;;;;;5089946;28;20223;-62
2021/07/18 10:49:52;;;;;;;2.55;2.35;;;;;;;;;;5092289;28;20648;-61
2021/07/18 10:52:23;;;;;;;2.60;2.40;;;;;;;;;;5087983;28;20228;-63
2021/07/18 10:54:51;;;;;;;3.38;2.40;;;;;;;;;;5071617;28;20288;-62
2021/07/18 10:57:27;;;;;;;3.63;2.40;;;;;;;;;;5071507;28;20794;-63
2021/07/18 10:59:57;;;;;;;2.78;2.47;;;;;;;;;;5071560;28;20283;-61
2021/07/18 11:02:35;;;;;;;3.58;2.30;;;;;;;;;;5077968;28;20207;-63
2021/07/18 11:05:05;;;;;;;3.30;2.45;;;;;;;;;;5074767;28;20215;-61
2021/07/18 11:07:34;;;;;;;2.60;2.40;;;;;;;;;;5071433;28;20311;-61
2021/07/18 11:10:11;;;;;;;3.00;2.80;;;;;;;;;;5072064;28;20205;-62
2021/07/18 11:12:43;;;;;;;2.63;2.38;;;;;;;;;;5074597;28;20272;-62
2021/07/18 11:15:22;;;;;;;2.83;2.22;;;;;;;;;;5075791;28;20665;-62
2021/07/18 11:17:57;;;;;;;3.03;2.58;;;;;;;;;;5082474;28;20656;-63
2021/07/18 11:20:42;;;;;;;2.53;2.33;;;;;;;;;;5095997;28;20205;-63
2021/07/18 11:23:10;;;;;;;4.72;2.45;;;;;;;;;;5092166;28;20283;-63
2021/07/18 11:25:39;;;;;;;3.30;2.35;;;;;;;;;;5084455;28;20262;-62
2021/07/18 11:28:22;;;;;;;3.63;2.47;;;;;;;;;;5075330;28;20216;-63
2021/07/18 11:31:15;;;;;;;3.25;2.50;;;;;;;;;;5075534;28;20185;-63
2021/07/18 11:33:51;;;;;;;2.75;2.50;;;;;;;;;;5075391;28;20189;-62
2021/07/18 11:36:21;;;;;;;2.67;2.47;;;;;;;;;;5076251;28;20218;-62
2021/07/18 11:38:49;;;;;;;2.20;2.00;;;;;;;;;;5095546;28;20287;-62
2021/07/18 11:41:18;;;;;;;2.50;2.30;;;;;;;;;;5095607;28;20200;-62
2021/07/18 11:43:47;;;;;;;2.20;2.00;;;;;;;;;;5095477;28;20196;-63
2021/07/18 11:46:18;;;;;;;2.45;2.25;;;;;;;;;;5095584;28;20200;-61
2021/07/18 11:48:47;;;;;;;2.50;2.30;;;;;;;;;;5095045;28;20703;-62
2021/07/18 11:51:16;;;;;;;2.50;2.30;;;;;;;;;;5095071;28;20228;-61
2021/07/18 11:53:45;;;;;;;3.60;2.50;;;;;;;;;;5095093;28;20662;-63
2021/07/18 11:56:20;;;;;;;2.72;2.53;;;;;;;;;;5095328;28;20204;-61
2021/07/18 11:58:49;;;;;;;2.55;2.35;;;;;;;;;;5095149;28;20196;-63
2021/07/18 12:01:26;;;;;;;2.65;2.45;;;;;;;;;;5095257;28;20315;-61
2021/07/18 12:03:54;;;;;;;3.35;2.53;;;;;;;;;;5094763;28;20180;-62
2021/07/18 12:06:24;;;;;;;3.00;2.50;;;;;;;;;;5095155;28;20192;-62
2021/07/18 12:08:52;;;;;;;3.72;2.70;;;;;;;;;;5094963;28;20226;-61
2021/07/18 12:11:23;;;;;;;2.40;2.20;;;;;;;;;;5095100;28;20291;-62
2021/07/18 12:13:53;;;;;;;4.25;2.50;;;;;;;;;;5094528;28;20708;-61
2021/07/18 12:16:21;;;;;;;3.22;2.92;;;;;;;;;;5094921;28;20212;-62
2021/07/18 12:18:52;;;;;;;3.38;2.90;;;;;;;;;;5094908;28;20218;-62
2021/07/18 12:21:21;;;;;;;2.83;2.63;;;;;;;;;;5094881;28;20275;-61
2021/07/18 12:24:04;;;;;;;2.97;2.65;;;;;;;;;;5094480;28;20196;-61
2021/07/18 12:26:32;;;;;;;3.83;3.10;;;;;;;;;;5094693;28;20200;-63
2021/07/18 12:29:02;;;;;;;2.75;2.50;;;;;;;;;;5094616;28;20216;-62
2021/07/18 12:31:31;;;;;;;3.47;2.17;;;;;;;;;;5094753;28;20202;-61
2021/07/18 12:34:00;;;;;;;2.90;2.58;;;;;;;;;;5094593;28;20225;-63
2021/07/18 12:36:29;;;;;;;3.22;2.17;;;;;;;;;;5094511;28;20289;-65
2021/07/18 12:39:14;;;;;;;2.95;2.70;;;;;;;;;;5094382;28;20204;-62
2021/07/18 12:41:42;;;;;;;3.80;2.67;;;;;;;;;;5094384;28;20188;-64
2021/07/18 12:44:10;;;;;;;3.15;2.45;;;;;;;;;;5094043;28;20546;-66
2021/07/18 12:46:38;;;;;;;2.72;2.47;;;;;;;;;;5094242;28;20207;-62
2021/07/18 12:49:08;;;;;;;2.65;2.40;;;;;;;;;;5094004;28;20220;-63
2021/07/18 12:51:37;;;;;;;2.65;2.45;;;;;;;;;;5093763;28;20220;-63
2021/07/18 12:54:06;;;;;;;2.75;2.45;;;;;;;;;;5093781;28;20204;-64
2021/07/18 12:56:34;;;;;;;2.60;2.40;;;;;;;;;;5094151;28;20247;-64
2021/07/18 12:59:02;;;;;;;4.45;2.60;;;;;;;;;;5093448;28;20663;-63
2021/07/18 13:01:32;;;;;;;3.08;2.42;;;;;;;;;;5094016;28;20200;-64
2021/07/18 13:04:06;;;;;;;2.60;2.40;;;;;;;;;;5093642;28;20672;-65
2021/07/18 13:06:46;;;;;;;2.90;2.30;;;;;;;;;;5093863;28;20197;-63
2021/07/18 13:09:20;;;;;;;3.05;2.15;;;;;;;;;;5093950;28;20200;-63
2021/07/18 13:11:52;;;;;;;2.97;2.38;;;;;;;;;;5093793;28;20200;-63
2021/07/18 13:14:25;;;;;;;2.53;2.33;;;;;;;;;;5093655;28;20196;-62
2021/07/18 13:17:03;;;;;;;2.58;2.38;;;;;;;;;;5093545;28;20663;-63
2021/07/18 13:19:32;;;;;;;4.38;2.55;;;;;;;;;;5093710;28;20202;-63
2021/07/18 13:22:02;;;;;;;2.70;2.50;;;;;;;;;;5093818;28;20283;-63
2021/07/18 13:24:33;;;;;;;2.83;2.50;;;;;;;;;;5094155;28;20195;-63
2021/07/18 13:27:14;;;;;;;1.90;1.80;;;;;;;;;;5093858;28;20210;-63
2021/07/18 13:29:43;;;;;;;2.30;2.10;;;;;;;;;;5093552;28;20215;-62
2021/07/18 13:32:13;;;;;;;2.92;2.22;;;;;;;;;;5093839;28;20200;-64
2021/07/18 13:34:42;;;;;;;4.18;2.55;;;;;;;;;;5092946;28;20196;-63
2021/07/18 13:37:11;;;;;;;3.60;2.42;;;;;;;;;;5093482;28;20210;-62
2021/07/18 13:39:39;;;;;;;3.45;2.60;;;;;;;;;;5093930;28;20220;-64
2021/07/18 13:42:10;;;;;;;2.63;2.33;;;;;;;;;;5093924;28;20196;-62
2021/07/18 13:44:39;;;;;;;3.15;2.20;;;;;;;;;;5094092;28;20378;-63
2021/07/18 13:47:07;;;;;;;3.00;2.08;;;;;;;;;;5093378;28;20196;-63
2021/07/18 13:49:35;;;;;;;4.10;2.35;;;;;;;;;;5093550;28;20238;-64
2021/07/18 13:52:04;;;;;;;4.28;2.50;;;;;;;;;;5093275;28;20318;-63
2021/07/18 13:54:35;;;;;;;5.15;2.40;;;;;;;;;;5093260;28;20226;-63
2021/07/18 13:57:03;;;;;;;2.80;2.45;;;;;;;;;;5093151;28;20210;-65
2021/07/18 13:59:31;;;;;;;2.88;2.08;;;;;;;;;;5092657;28;20604;-63
2021/07/18 14:01:59;;;;;;;4.03;2.33;;;;;;;;;;5092797;28;20639;-64
2021/07/18 14:04:28;;;;;;;2.65;2.45;;;;;;;;;;5092888;28;20246;-63
2021/07/18 14:06:57;;;;;;;2.55;2.22;;;;;;;;;;5092976;28;20211;-63
2021/07/18 14:09:25;;;;;;;2.55;2.35;;;;;;;;;;5092431;28;20703;-63
2021/07/18 14:11:54;;;;;;;3.38;2.92;;;;;;;;;;5092617;28;20207;-63
2021/07/18 14:14:23;;;;;;;2.47;2.28;;;;;;;;;;5092791;28;20282;-64
2021/07/18 14:16:51;;;;;;;2.42;2.13;;;;;;;;;;5092878;28;20286;-64
2021/07/18 14:19:19;;;;;;;3.63;1.98;;;;;;;;;;5092324;28;20253;-63
2021/07/18 14:21:47;;;;;;;2.60;2.40;;;;;;;;;;5092817;28;20195;-62
2021/07/18 14:24:15;;;;;;;2.28;2.00;;;;;;;;;;5092800;28;20207;-63
2021/07/18 14:26:44;;;;;;;2.58;2.20;;;;;;;;;;5092382;28;20211;-65
2021/07/18 14:29:13;;;;;;;3.85;3.40;;;;;;;;;;5092442;28;20227;-63
2021/07/18 14:31:41;;;;;;;2.85;2.55;;;;;;;;;;5092636;28;20230;-67
2021/07/18 14:34:09;;;;;;;3.60;3.22;;;;;;;;;;5092429;28;20203;-63
2021/07/18 14:36:37;;;;;;;2.10;2.00;;;;;;;;;;5092307;28;20719;-64
2021/07/18 14:39:06;;;;;;;4.38;2.38;;;;;;;;;;5092205;28;20200;-64
2021/07/18 14:41:34;;;;;;;3.65;2.50;;;;;;;;;;5092478;28;20200;-63
2021/07/18 14:44:02;;;;;;;3.42;2.60;;;;;;;;;;5093440;28;20290;-63
2021/07/18 14:46:32;;;;;;;3.13;2.38;;;;;;;;;;5100027;28;20199;-64
2021/07/18 14:49:00;;;;;;;2.90;2.60;;;;;;;;;;5102761;28;20228;-64
2021/07/18 14:51:29;;;;;;;2.85;2.65;;;;;;;;;;5100140;28;20286;-63
2021/07/18 14:53:57;;;;;;;2.72;2.53;;;;;;;;;;5096901;28;20652;-63
2021/07/18 14:56:26;;;;;;;3.17;2.63;;;;;;;;;;5097526;28;20243;-64
2021/07/18 14:58:54;;;;;;;2.60;2.40;;;;;;;;;;5097031;28;20207;-63
2021/07/18 15:01:22;;;;;;;3.38;2.45;;;;;;;;;;5096519;28;20192;-63
2021/07/18 15:03:52;;;;;;;4.75;2.65;;;;;;;;;;5095777;28;20249;-63